Time;durP1;ratioP1;P1;durP2;ratioP2;P2;SDS_P1;SDS_P2;PMS_P1;PMS_P2;Temp;Humidity;BMP_temperature;BMP_pressure;BME280_temperature;BME280_humidity;BME280_pressure;Samples;Min_cycle;Max_cycle;Signal;HPM_P1;HPM_P2
2022/02/07 00:02:38;;;;;;;17.77;16.33;;;4.50;99.90;;;;;;4973822;28;20458;-71
2022/02/07 00:05:05;;;;;;;22.57;16.87;;;4.40;99.90;;;;;;4980852;28;20518;-70
2022/02/07 00:07:32;;;;;;;19.63;18.10;;;4.30;99.90;;;;;;4982619;28;20471;-72
2022/02/07 00:10:01;;;;;;;19.23;17.97;;;4.20;99.90;;;;;;4976192;28;20826;-73
2022/02/07 00:12:28;;;;;;;18.47;17.27;;;4.10;99.90;;;;;;4978197;28;20479;-72
2022/02/07 00:14:57;;;;;;;18.67;17.53;;;4.00;99.90;;;;;;4982552;28;20459;-72
2022/02/07 00:17:23;;;;;;;18.07;16.90;;;3.90;99.90;;;;;;4977997;28;20554;-71
2022/02/07 00:19:50;;;;;;;19.30;17.10;;;3.90;99.90;;;;;;4983369;28;20458;-71
2022/02/07 00:22:17;;;;;;;22.30;17.87;;;3.90;99.90;;;;;;4980498;28;20722;-70
2022/02/07 00:24:44;;;;;;;19.70;18.17;;;3.80;99.90;;;;;;4981699;28;20468;-71
2022/02/07 00:27:11;;;;;;;19.40;17.63;;;4.00;99.90;;;;;;4978325;28;20469;-72
2022/02/07 00:29:38;;;;;;;20.27;18.63;;;4.10;99.90;;;;;;4984189;28;20555;-72
2022/02/07 00:32:07;;;;;;;18.87;17.60;;;4.10;99.90;;;;;;4980132;28;20773;-70
2022/02/07 00:34:34;;;;;;;18.50;17.40;;;4.10;99.90;;;;;;4981523;28;20857;-71
2022/02/07 00:37:01;;;;;;;18.70;17.30;;;4.10;99.90;;;;;;4983018;28;21012;-73
2022/02/07 00:39:36;;;;;;;19.17;17.57;;;4.00;99.90;;;;;;4979283;28;20462;-72
2022/02/07 00:42:06;;;;;;;18.90;17.50;;;3.90;99.90;;;;;;4983335;28;20474;-71
2022/02/07 00:44:33;;;;;;;19.60;18.20;;;3.80;99.90;;;;;;4987751;28;20454;-70
2022/02/07 00:47:07;;;;;;;18.57;17.20;;;3.70;99.90;;;;;;4979379;28;20564;-72
2022/02/07 00:49:35;;;;;;;18.60;17.10;;;3.60;99.90;;;;;;4982160;28;20834;-71
2022/02/07 00:52:02;;;;;;;19.33;17.17;;;3.50;99.90;;;;;;4978837;28;20556;-72
2022/02/07 00:54:29;;;;;;;18.77;17.60;;;3.50;99.90;;;;;;4981372;28;20470;-71
2022/02/07 00:56:56;;;;;;;18.43;16.60;;;3.40;99.90;;;;;;4981434;28;20495;-72
2022/02/07 00:59:23;;;;;;;17.83;16.53;;;3.40;99.90;;;;;;4983255;28;20464;-71
2022/02/07 01:01:50;;;;;;;18.63;17.20;;;3.40;99.90;;;;;;4985134;28;20478;-72
2022/02/07 01:04:18;;;;;;;18.43;16.97;;;3.30;99.90;;;;;;4978710;28;20494;-70
2022/02/07 01:06:47;;;;;;;18.63;16.67;;;3.40;99.90;;;;;;4981868;28;20466;-71
2022/02/07 01:09:17;;;;;;;17.33;15.90;;;3.40;99.90;;;;;;4980833;28;20466;-72
2022/02/07 01:12:09;;;;;;;18.13;16.73;;;3.40;99.90;;;;;;4981948;28;20500;-72
2022/02/07 01:14:47;;;;;;;18.30;17.13;;;3.40;99.90;;;;;;4978200;28;20641;-71
2022/02/07 01:23:05;;;;;;;17.70;15.90;;;3.40;99.90;;;;;;4970455;28;20466;-71
2022/02/07 01:47:55;;;;;;;16.63;15.10;;;3.00;99.90;;;;;;4977664;28;20482;-71
2022/02/07 01:50:46;;;;;;;17.60;15.70;;;2.90;99.90;;;;;;4976231;28;20998;-70
2022/02/07 01:53:24;;;;;;;17.07;15.77;;;3.00;99.90;;;;;;4980277;28;20967;-72
2022/02/07 01:55:56;;;;;;;16.20;14.93;;;2.90;99.90;;;;;;4979311;28;20987;-72
2022/02/07 01:58:25;;;;;;;17.60;14.73;;;2.90;99.90;;;;;;4977822;28;21255;-71
2022/02/07 02:00:52;;;;;;;28.30;15.50;;;3.00;99.90;;;;;;4978437;28;20469;-71
2022/02/07 02:03:20;;;;;;;16.50;14.80;;;3.00;99.90;;;;;;4980365;28;20471;-71
2022/02/07 02:05:47;;;;;;;15.63;14.53;;;3.00;99.90;;;;;;4983276;28;20997;-72
2022/02/07 02:08:17;;;;;;;15.97;14.27;;;3.10;99.90;;;;;;4978330;28;20467;-72
2022/02/07 02:10:45;;;;;;;15.93;14.07;;;3.10;99.90;;;;;;4979449;28;20466;-71
2022/02/07 02:13:19;;;;;;;17.23;15.87;;;3.20;99.90;;;;;;4973386;28;20486;-69
2022/02/07 02:15:52;;;;;;;27.17;24.70;;;3.40;99.90;;;;;;4979464;28;20519;-70
2022/02/07 02:19:06;;;;;;;24.67;23.17;;;3.40;99.90;;;;;;4982136;28;20463;-71
2022/02/07 02:22:16;;;;;;;25.53;23.80;;;3.30;99.90;;;;;;4977576;28;20463;-71
2022/02/07 02:34:04;;;;;;;26.73;24.67;;;2.70;99.90;;;;;;4980724;28;20505;-73
2022/02/07 02:36:23;;;;;;;26.37;24.70;;;2.80;99.90;;;;;;4981709;28;20490;-70
2022/02/07 02:45:21;;;;;;;26.70;25.00;;;2.70;99.90;;;;;;4980594;28;20471;-71
2022/02/07 02:47:08;;;;;;;26.87;25.30;;;2.50;99.90;;;;;;4975465;28;20957;-73
2022/02/07 02:49:48;;;;;;;27.93;25.93;;;2.50;99.90;;;;;;4980042;28;20485;-72
2022/02/07 02:52:16;;;;;;;28.47;26.30;;;2.50;99.90;;;;;;4975691;28;20492;-72
2022/02/07 02:54:43;;;;;;;27.90;26.07;;;2.40;99.90;;;;;;4974257;28;20466;-71
2022/02/07 02:57:12;;;;;;;27.90;26.03;;;2.40;99.90;;;;;;4982380;28;20895;-71
2022/02/07 02:59:39;;;;;;;27.40;25.67;;;2.50;99.90;;;;;;4980147;28;20478;-71
2022/02/07 03:02:06;;;;;;;27.93;25.43;;;2.50;99.90;;;;;;4981633;28;20465;-71
2022/02/07 03:04:33;;;;;;;31.33;25.83;;;2.50;99.90;;;;;;4977337;28;20467;-72
2022/02/07 03:07:00;;;;;;;28.03;26.03;;;2.50;99.90;;;;;;4979400;28;20463;-72
2022/02/07 03:09:29;;;;;;;27.20;25.20;;;2.50;99.90;;;;;;4975741;28;20471;-72
2022/02/07 03:11:57;;;;;;;27.40;25.33;;;2.60;99.90;;;;;;4976095;28;21054;-73
2022/02/07 03:14:36;;;;;;;27.00;25.30;;;2.60;99.90;;;;;;4981525;28;20469;-73
2022/02/07 03:17:02;;;;;;;26.93;24.87;;;2.50;99.90;;;;;;4982744;28;20498;-71
2022/02/07 03:19:29;;;;;;;26.90;25.20;;;2.50;99.90;;;;;;4977353;28;20481;-71
2022/02/07 03:21:56;;;;;;;28.03;25.33;;;2.50;99.90;;;;;;4976437;28;20466;-71
2022/02/07 03:24:23;;;;;;;27.37;25.20;;;2.50;99.90;;;;;;4979888;28;20470;-71
2022/02/07 03:26:50;;;;;;;27.07;25.10;;;2.40;99.90;;;;;;4978458;28;20553;-72
2022/02/07 03:29:17;;;;;;;27.33;25.40;;;2.50;99.90;;;;;;4975430;28;20464;-73
2022/02/07 03:31:46;;;;;;;27.30;25.60;;;2.40;99.90;;;;;;4982058;28;20519;-72
2022/02/07 03:34:13;;;;;;;29.37;26.93;;;2.40;99.90;;;;;;4978141;28;20497;-72
2022/02/07 03:36:40;;;;;;;30.00;27.73;;;2.40;99.90;;;;;;4976301;28;20494;-73
2022/02/07 03:39:07;;;;;;;26.80;25.10;;;2.40;99.90;;;;;;4979332;28;20491;-73
2022/02/07 03:41:36;;;;;;;27.50;25.23;;;2.30;99.90;;;;;;4981693;28;20546;-73
2022/02/07 03:44:03;;;;;;;28.53;26.00;;;2.30;99.90;;;;;;4979198;28;20710;-70
2022/02/07 03:46:30;;;;;;;28.20;26.00;;;2.40;99.90;;;;;;4986589;28;20485;-71
2022/02/07 03:48:59;;;;;;;26.90;25.00;;;2.40;99.90;;;;;;4982895;28;20465;-71
2022/02/07 03:51:25;;;;;;;27.17;25.13;;;2.30;99.90;;;;;;4982055;28;20478;-72
2022/02/07 03:53:52;;;;;;;28.33;25.83;;;2.30;99.90;;;;;;4982379;28;20458;-73
2022/02/07 03:56:19;;;;;;;27.00;24.80;;;2.30;99.90;;;;;;4982779;28;21007;-72
2022/02/07 03:58:46;;;;;;;27.40;25.20;;;2.30;99.90;;;;;;4985252;28;20492;-72
2022/02/07 04:01:13;;;;;;;26.40;24.30;;;2.30;99.90;;;;;;4982597;28;20498;-71
2022/02/07 04:03:40;;;;;;;28.17;25.70;;;2.30;99.90;;;;;;4982437;28;20647;-73
2022/02/07 04:06:14;;;;;;;28.57;26.17;;;2.30;99.90;;;;;;4981685;28;20554;-73
2022/02/07 04:08:44;;;;;;;28.27;26.00;;;2.30;99.90;;;;;;4982765;28;20567;-72
2022/02/07 04:11:18;;;;;;;28.20;25.60;;;2.30;99.90;;;;;;4982166;28;20486;-71
2022/02/07 04:13:50;;;;;;;28.53;25.67;;;2.30;99.90;;;;;;4977749;28;20475;-72
2022/02/07 04:16:17;;;;;;;27.03;24.63;;;2.30;99.90;;;;;;4977607;28;20861;-72
2022/02/07 04:18:59;;;;;;;26.47;24.80;;;2.30;99.90;;;;;;4979851;28;20478;-71
2022/02/07 04:21:30;;;;;;;26.20;24.03;;;2.30;99.90;;;;;;4976389;28;20496;-72
2022/02/07 04:23:57;;;;;;;26.90;24.63;;;2.30;99.90;;;;;;4976738;28;20471;-71
2022/02/07 04:26:24;;;;;;;27.13;24.93;;;2.30;99.90;;;;;;4979633;28;20846;-71
2022/02/07 04:28:51;;;;;;;29.77;26.53;;;2.30;99.90;;;;;;4975670;28;20985;-72
2022/02/07 04:31:18;;;;;;;29.80;26.80;;;2.30;99.90;;;;;;4977593;28;20539;-70
2022/02/07 04:33:45;;;;;;;27.60;25.17;;;2.30;99.90;;;;;;4983779;28;20491;-71
2022/02/07 04:36:12;;;;;;;28.50;25.87;;;2.30;99.90;;;;;;4974993;28;20474;-70
2022/02/07 04:38:40;;;;;;;27.33;25.10;;;2.30;99.90;;;;;;4981716;28;20470;-71
2022/02/07 04:41:09;;;;;;;27.63;25.07;;;2.30;99.90;;;;;;4984046;28;20474;-70
2022/02/07 04:43:39;;;;;;;27.37;24.87;;;2.30;99.90;;;;;;4980556;28;20881;-71
2022/02/07 04:46:22;;;;;;;28.50;26.10;;;2.40;99.90;;;;;;4983629;28;20494;-72
2022/02/07 04:54:43;;;;;;;26.53;24.30;;;2.40;99.90;;;;;;4978399;28;20582;-72
2022/02/07 04:57:15;;;;;;;29.17;25.20;;;2.40;99.90;;;;;;4978734;28;20529;-72
2022/02/07 04:59:55;;;;;;;26.80;24.60;;;2.40;99.90;;;;;;4967556;28;20991;-71
2022/02/07 05:02:27;;;;;;;27.43;24.63;;;2.40;99.90;;;;;;4955573;28;20470;-70
2022/02/07 05:05:05;;;;;;;25.57;23.47;;;2.40;99.90;;;;;;4957570;28;20594;-72
2022/02/07 05:15:55;;;;;;;29.73;23.53;;;2.70;99.90;;;;;;4970397;28;20505;-72
2022/02/07 05:18:22;;;;;;;27.80;24.90;;;2.80;99.90;;;;;;4979204;28;20502;-71
2022/02/07 05:20:49;;;;;;;24.50;22.80;;;2.90;99.90;;;;;;4977695;28;20480;-70
2022/02/07 05:23:16;;;;;;;25.20;22.60;;;3.00;99.90;;;;;;4968682;28;20471;-70
2022/02/07 05:25:44;;;;;;;25.40;23.20;;;3.00;99.90;;;;;;4957054;28;20462;-72
2022/02/07 05:28:11;;;;;;;24.83;21.37;;;3.10;99.90;;;;;;4957228;28;20467;-72
2022/02/07 05:30:38;;;;;;;23.00;21.40;;;3.20;99.90;;;;;;4957105;28;21068;-72
2022/02/07 05:33:05;;;;;;;28.93;21.30;;;3.20;99.90;;;;;;4957453;28;20460;-70
2022/02/07 05:35:31;;;;;;;23.87;21.50;;;3.20;99.90;;;;;;4954952;28;20463;-73
2022/02/07 05:37:59;;;;;;;42.60;20.10;;;3.30;99.90;;;;;;4954636;28;21760;-71
2022/02/07 05:40:33;;;;;;;22.43;20.17;;;3.30;99.90;;;;;;4955412;28;21019;-69
2022/02/07 05:43:01;;;;;;;24.87;19.60;;;3.30;99.90;;;;;;4957560;28;20472;-71
2022/02/07 05:45:28;;;;;;;25.37;19.10;;;3.30;99.90;;;;;;4956466;28;21444;-72
2022/02/07 05:47:56;;;;;;;27.50;19.20;;;3.30;99.90;;;;;;4956581;28;20533;-71
2022/02/07 05:50:22;;;;;;;21.80;17.87;;;3.30;99.90;;;;;;4957501;28;20465;-71
2022/02/07 05:52:49;;;;;;;20.20;18.23;;;3.20;99.90;;;;;;4955221;28;20477;-70
2022/02/07 05:55:17;;;;;;;20.23;18.37;;;3.20;99.90;;;;;;4955570;28;20464;-71
2022/02/07 05:57:44;;;;;;;19.00;17.23;;;3.20;99.90;;;;;;4955129;28;20919;-71
2022/02/07 06:00:13;;;;;;;20.67;16.37;;;3.20;99.90;;;;;;4956788;28;20868;-72
2022/02/07 06:02:40;;;;;;;18.07;16.30;;;3.20;99.90;;;;;;4956117;28;20533;-71
2022/02/07 06:05:07;;;;;;;22.67;16.33;;;3.20;99.90;;;;;;4956320;28;20483;-72
2022/02/07 06:07:35;;;;;;;17.83;16.13;;;3.30;99.90;;;;;;4953805;28;21060;-72
2022/02/07 06:10:01;;;;;;;18.57;16.50;;;3.40;99.90;;;;;;4955859;28;20463;-70
2022/02/07 06:12:28;;;;;;;18.03;16.20;;;3.40;99.90;;;;;;4956414;28;20927;-72
2022/02/07 06:14:56;;;;;;;19.20;16.70;;;3.30;99.90;;;;;;4966198;28;20466;-71
2022/02/07 06:17:24;;;;;;;25.27;17.20;;;3.30;99.90;;;;;;4986564;28;20482;-72
2022/02/07 06:19:53;;;;;;;21.87;17.23;;;3.20;99.90;;;;;;4964432;28;20475;-72
2022/02/07 06:22:19;;;;;;;24.23;17.10;;;3.20;99.90;;;;;;4956807;28;20493;-71
2022/02/07 06:24:47;;;;;;;19.40;17.60;;;3.20;99.90;;;;;;4956577;28;20482;-72
2022/02/07 06:27:13;;;;;;;19.17;17.50;;;3.20;99.90;;;;;;4956148;28;20471;-70
2022/02/07 06:29:42;;;;;;;18.90;16.90;;;3.10;99.90;;;;;;4957168;28;20557;-72
2022/02/07 06:32:09;;;;;;;21.83;17.23;;;3.00;99.90;;;;;;4956352;28;20546;-72
2022/02/07 06:34:37;;;;;;;19.27;16.90;;;2.90;99.90;;;;;;4957056;28;20853;-72
2022/02/07 06:37:04;;;;;;;19.23;17.40;;;2.90;99.90;;;;;;4956302;28;20494;-72
2022/02/07 06:39:31;;;;;;;23.60;17.40;;;2.90;99.90;;;;;;4956537;28;21156;-70
2022/02/07 06:41:58;;;;;;;20.00;18.07;;;2.90;99.90;;;;;;4957327;28;20467;-71
2022/02/07 06:44:26;;;;;;;18.87;16.87;;;2.80;99.90;;;;;;4957092;28;20968;-72
2022/02/07 06:46:54;;;;;;;18.90;17.30;;;2.90;99.90;;;;;;4956138;28;21337;-72
2022/02/07 06:49:21;;;;;;;26.83;17.90;;;2.90;99.90;;;;;;4956147;28;20491;-70
2022/02/07 06:51:49;;;;;;;23.07;16.80;;;2.80;99.90;;;;;;4954777;28;20594;-71
2022/02/07 06:54:16;;;;;;;20.30;18.67;;;2.80;99.90;;;;;;4954834;28;20475;-70
2022/02/07 06:56:44;;;;;;;25.37;21.03;;;2.90;99.90;;;;;;4954393;28;20467;-70
2022/02/07 06:59:15;;;;;;;22.27;20.33;;;2.90;99.90;;;;;;4954948;28;20472;-71
2022/02/07 07:01:42;;;;;;;21.77;19.73;;;3.00;99.90;;;;;;4953948;28;20459;-72
2022/02/07 07:04:09;;;;;;;21.80;19.60;;;3.10;99.90;;;;;;4955086;28;20482;-70
2022/02/07 07:06:36;;;;;;;21.93;19.90;;;3.20;99.90;;;;;;4953518;28;20521;-70
2022/02/07 07:09:05;;;;;;;30.83;20.53;;;3.30;99.90;;;;;;4954809;28;20508;-72
2022/02/07 07:11:33;;;;;;;27.53;22.00;;;3.20;99.90;;;;;;4953641;28;21141;-72
2022/02/07 07:14:04;;;;;;;22.73;20.43;;;3.20;99.90;;;;;;4953737;28;20623;-71
2022/02/07 07:16:50;;;;;;;23.83;20.80;;;3.10;99.90;;;;;;4956239;28;20455;-71
2022/02/07 07:19:18;;;;;;;22.80;20.60;;;3.10;99.90;;;;;;4957809;28;20829;-70
2022/02/07 07:21:45;;;;;;;21.40;19.43;;;3.00;99.90;;;;;;4957952;28;20474;-70
2022/02/07 07:24:16;;;;;;;31.00;22.93;;;3.00;99.90;;;;;;4958023;28;20466;-72
2022/02/07 07:26:42;;;;;;;25.30;21.30;;;3.00;99.90;;;;;;4958055;28;20467;-72
2022/02/07 07:29:13;;;;;;;28.23;21.33;;;3.00;99.90;;;;;;4957639;28;20473;-71
2022/02/07 07:31:44;;;;;;;23.17;21.13;;;2.90;99.90;;;;;;4957056;28;20470;-71
2022/02/07 07:34:15;;;;;;;23.47;21.03;;;3.00;99.90;;;;;;4957030;28;20498;-70
2022/02/07 07:36:43;;;;;;;32.87;19.87;;;3.00;99.90;;;;;;4957310;28;20470;-71
2022/02/07 07:39:10;;;;;;;20.90;19.10;;;3.10;99.90;;;;;;4956862;28;20529;-70
2022/02/07 07:41:38;;;;;;;22.17;19.60;;;3.10;99.90;;;;;;4957532;28;20463;-70
2022/02/07 07:44:06;;;;;;;22.00;20.07;;;3.10;99.90;;;;;;4955913;28;20850;-70
2022/02/07 07:46:33;;;;;;;33.27;21.40;;;3.10;99.90;;;;;;4954952;28;20459;-70
2022/02/07 07:49:04;;;;;;;22.50;20.10;;;3.10;99.90;;;;;;4955392;28;20474;-71
2022/02/07 07:51:40;;;;;;;21.57;19.50;;;3.20;99.90;;;;;;4955776;28;20483;-71
2022/02/07 07:54:18;;;;;;;21.63;19.23;;;3.20;99.90;;;;;;4954789;28;20467;-70
2022/02/07 08:02:18;;;;;;;21.30;19.13;;;3.30;99.90;;;;;;4969919;28;20858;-71
2022/02/07 08:04:46;;;;;;;25.73;19.43;;;3.20;99.90;;;;;;4981685;28;20474;-72
2022/02/07 08:07:19;;;;;;;30.70;20.90;;;3.30;99.90;;;;;;4976684;28;20494;-72
2022/02/07 08:12:35;;;;;;;22.53;20.53;;;3.30;99.90;;;;;;4957467;28;20706;-72
2022/02/07 08:15:02;;;;;;;26.20;19.30;;;3.30;99.90;;;;;;4956779;28;21256;-70
2022/02/07 08:17:30;;;;;;;21.27;18.83;;;3.30;99.90;;;;;;4955123;28;21268;-71
2022/02/07 08:19:57;;;;;;;24.30;18.23;;;3.40;99.90;;;;;;4957936;28;20493;-70
2022/02/07 08:22:24;;;;;;;21.03;18.40;;;3.50;99.90;;;;;;4957900;28;20475;-71
2022/02/07 08:24:55;;;;;;;19.23;17.17;;;3.60;99.90;;;;;;4954877;28;20907;-70
2022/02/07 08:27:23;;;;;;;18.67;16.77;;;3.70;99.90;;;;;;4955629;28;20466;-70
2022/02/07 08:29:52;;;;;;;37.07;17.67;;;3.80;99.90;;;;;;4955647;28;20528;-72
2022/02/07 08:32:18;;;;;;;36.27;17.90;;;3.90;99.90;;;;;;4955994;28;21471;-69
2022/02/07 08:34:46;;;;;;;28.07;16.27;;;3.90;99.90;;;;;;4954936;28;20553;-72
2022/02/07 08:37:12;;;;;;;23.93;16.30;;;4.00;99.90;;;;;;4954898;28;20459;-71
2022/02/07 08:39:40;;;;;;;22.10;15.70;;;4.00;99.90;;;;;;4954587;28;20635;-72
2022/02/07 08:42:08;;;;;;;18.07;15.00;;;4.00;99.90;;;;;;4954614;28;20474;-72
2022/02/07 08:44:35;;;;;;;18.57;15.20;;;4.10;99.90;;;;;;4954274;28;20827;-71
2022/02/07 08:47:03;;;;;;;20.10;14.60;;;4.10;99.90;;;;;;4955213;28;20471;-71
2022/02/07 08:49:30;;;;;;;18.80;15.03;;;4.20;99.90;;;;;;4955193;28;21122;-71
2022/02/07 08:51:57;;;;;;;18.00;16.17;;;4.30;99.90;;;;;;4955541;28;21091;-72
2022/02/07 08:54:27;;;;;;;19.47;15.43;;;4.30;99.90;;;;;;4972083;28;20459;-71
2022/02/07 08:56:58;;;;;;;16.37;14.97;;;4.40;99.90;;;;;;4979461;28;20559;-71
2022/02/07 08:59:33;;;;;;;20.27;16.50;;;4.60;99.90;;;;;;4977540;28;20494;-69
2022/02/07 09:02:15;;;;;;;18.97;15.70;;;4.90;99.90;;;;;;4956256;28;20470;-72
2022/02/07 09:04:52;;;;;;;27.93;15.87;;;4.90;99.90;;;;;;4956699;28;20459;-72
2022/02/07 09:07:24;;;;;;;16.63;14.97;;;5.00;99.90;;;;;;4955496;28;20458;-69
2022/02/07 09:09:53;;;;;;;22.17;16.63;;;5.10;99.90;;;;;;4956229;28;20465;-70
2022/02/07 09:12:19;;;;;;;22.87;16.90;;;5.20;99.90;;;;;;4955584;28;20490;-69
2022/02/07 09:14:57;;;;;;;22.97;16.13;;;5.20;99.90;;;;;;4955834;28;20920;-68
2022/02/07 09:17:24;;;;;;;19.33;15.90;;;5.30;99.90;;;;;;4954806;28;20586;-68
2022/02/07 09:19:53;;;;;;;20.70;14.90;;;5.30;99.90;;;;;;4955891;28;20469;-70
2022/02/07 09:22:20;;;;;;;28.90;16.80;;;5.30;99.90;;;;;;4955723;28;20479;-68
2022/02/07 09:24:47;;;;;;;25.77;18.43;;;5.20;99.90;;;;;;4955844;28;20465;-67
2022/02/07 09:27:14;;;;;;;23.87;17.50;;;5.20;99.90;;;;;;4956110;28;20467;-68
2022/02/07 09:29:41;;;;;;;24.07;15.87;;;5.20;99.90;;;;;;4955890;28;20484;-70
2022/02/07 09:32:09;;;;;;;20.27;15.67;;;5.20;99.90;;;;;;4955066;28;21094;-68
2022/02/07 09:34:36;;;;;;;22.07;15.70;;;5.30;99.90;;;;;;4955566;28;20491;-70
2022/02/07 09:37:05;;;;;;;26.30;16.90;;;5.30;99.90;;;;;;4954484;28;20472;-70
2022/02/07 09:39:31;;;;;;;23.67;15.80;;;5.30;99.90;;;;;;4954377;28;20495;-69
2022/02/07 09:42:03;;;;;;;17.73;15.73;;;5.30;99.90;;;;;;4964061;28;20490;-73
2022/02/07 09:44:41;;;;;;;20.13;16.40;;;5.30;99.90;;;;;;4969780;28;20467;-72
2022/02/07 09:47:09;;;;;;;20.93;16.77;;;5.40;99.90;;;;;;4955264;28;20832;-72
2022/02/07 09:49:36;;;;;;;18.20;15.93;;;5.50;99.90;;;;;;4955218;28;20556;-71
2022/02/07 09:52:05;;;;;;;17.83;16.07;;;5.50;99.90;;;;;;4955964;28;20464;-70
2022/02/07 09:54:34;;;;;;;23.93;15.83;;;5.60;99.90;;;;;;4955593;28;20546;-72
2022/02/07 09:57:01;;;;;;;20.37;15.30;;;5.70;99.90;;;;;;4955265;28;21490;-71
2022/02/07 09:59:30;;;;;;;35.37;18.50;;;5.80;99.90;;;;;;4954150;28;20505;-73
2022/02/07 10:02:01;;;;;;;22.70;16.07;;;5.80;99.90;;;;;;4976470;28;20461;-72
2022/02/07 10:04:33;;;;;;;19.37;17.53;;;5.90;99.90;;;;;;4978704;28;20485;-70
2022/02/07 10:07:11;;;;;;;21.37;15.50;;;6.00;99.90;;;;;;4952827;28;20916;-72
2022/02/07 10:09:59;;;;;;;16.60;14.90;;;6.00;99.90;;;;;;4978155;28;20470;-71
2022/02/07 10:12:38;;;;;;;18.00;16.03;;;6.00;99.90;;;;;;4979542;28;21028;-71
2022/02/07 10:15:22;;;;;;;33.53;17.47;;;6.10;99.90;;;;;;4959204;28;20468;-73
2022/02/07 10:18:00;;;;;;;23.43;17.13;;;6.20;99.90;;;;;;4953565;28;20549;-72
2022/02/07 10:40:17;;;;;;;17.77;15.60;;;6.80;99.90;;;;;;4954175;28;20848;-71
2022/02/07 10:43:11;;;;;;;16.97;15.17;;;6.90;99.90;;;;;;4953559;28;20479;-72
2022/02/07 10:45:51;;;;;;;29.13;17.00;;;7.00;99.90;;;;;;4953861;28;20471;-71
2022/02/07 10:48:29;;;;;;;25.67;17.30;;;6.90;99.90;;;;;;4952725;28;20473;-72
2022/02/07 10:51:09;;;;;;;21.37;16.77;;;6.80;99.90;;;;;;4952379;28;20872;-71
2022/02/07 10:53:37;;;;;;;18.20;16.47;;;6.90;99.90;;;;;;4948599;28;20469;-73
2022/02/07 10:56:05;;;;;;;17.70;15.90;;;6.80;99.90;;;;;;4949279;28;20496;-72
2022/02/07 10:58:34;;;;;;;19.03;16.10;;;6.90;99.90;;;;;;4949707;28;20505;-73
2022/02/07 11:01:08;;;;;;;17.77;15.97;;;7.40;99.90;;;;;;4949616;28;20482;-72
2022/02/07 11:03:40;;;;;;;20.97;15.90;;;7.40;99.90;;;;;;4950988;28;20462;-71
2022/02/07 11:06:11;;;;;;;27.47;16.00;;;7.40;99.90;;;;;;4949807;28;20463;-72
2022/02/07 11:08:48;;;;;;;18.53;16.17;;;7.40;99.90;;;;;;4949082;28;20462;-70
2022/02/07 11:11:48;;;;;;;18.13;16.13;;;7.70;99.90;;;;;;4948676;28;21027;-73
2022/02/07 11:17:32;;;;;;;41.83;16.10;;;7.90;99.90;;;;;;4949263;28;20478;-72
2022/02/07 11:20:25;;;;;;;17.13;15.60;;;8.40;99.90;;;;;;4949078;28;21226;-73
2022/02/07 11:23:07;;;;;;;17.20;15.60;;;8.90;99.90;;;;;;4949334;28;20566;-72
2022/02/07 11:25:44;;;;;;;21.33;15.80;;;8.50;99.90;;;;;;4950415;28;20637;-71
2022/02/07 11:28:18;;;;;;;27.53;16.50;;;8.20;99.90;;;;;;4948597;28;20503;-71
2022/02/07 11:30:49;;;;;;;17.70;16.20;;;7.90;99.90;;;;;;4949790;28;22979;-71
2022/02/07 11:33:30;;;;;;;18.10;16.47;;;7.70;99.90;;;;;;4948268;28;20534;-74
2022/02/07 11:35:58;;;;;;;18.53;17.07;;;7.40;99.90;;;;;;4949328;28;20516;-71
2022/02/07 11:38:25;;;;;;;17.23;15.83;;;7.20;99.90;;;;;;4950194;28;21061;-73
2022/02/07 11:41:01;;;;;;;30.60;17.70;;;7.20;99.90;;;;;;4949272;28;20478;-71
2022/02/07 11:43:30;;;;;;;27.00;16.83;;;7.30;99.90;;;;;;4950239;28;20483;-73
2022/02/07 11:46:03;;;;;;;17.97;15.90;;;7.50;99.90;;;;;;4950020;28;21000;-73
2022/02/07 11:48:36;;;;;;;18.70;15.70;;;7.50;99.90;;;;;;4949259;28;20504;-72
2022/02/07 11:51:13;;;;;;;17.00;15.50;;;7.40;99.90;;;;;;4950730;28;20454;-70
2022/02/07 11:53:45;;;;;;;17.67;16.10;;;7.50;99.90;;;;;;4948957;28;20478;-70
2022/02/07 11:56:19;;;;;;;16.93;15.70;;;7.40;99.90;;;;;;4950387;28;20500;-71
2022/02/07 11:58:53;;;;;;;19.03;17.03;;;7.40;99.90;;;;;;4948761;28;20509;-70
2022/02/07 12:02:07;;;;;;;17.60;15.90;;;7.40;99.90;;;;;;4952616;28;20984;-71
2022/02/07 12:04:38;;;;;;;22.27;16.73;;;7.50;99.90;;;;;;4980046;28;20463;-69
2022/02/07 12:07:31;;;;;;;20.17;17.80;;;7.80;99.90;;;;;;4955644;28;20854;-71
2022/02/07 12:10:25;;;;;;;26.80;16.80;;;7.80;99.90;;;;;;4952041;28;21005;-71
2022/02/07 12:12:52;;;;;;;18.60;17.00;;;7.70;99.90;;;;;;4952280;28;20495;-72
2022/02/07 12:15:26;;;;;;;18.03;16.43;;;8.20;99.90;;;;;;4951743;28;20965;-73
2022/02/07 12:17:57;;;;;;;17.53;16.13;;;8.60;99.90;;;;;;4951902;28;20521;-73
2022/02/07 12:20:25;;;;;;;21.03;17.33;;;8.70;99.90;;;;;;4951864;28;21068;-72
2022/02/07 12:22:54;;;;;;;18.23;16.60;;;8.70;99.90;;;;;;4953331;28;20474;-72
2022/02/07 12:25:23;;;;;;;18.00;16.60;;;9.20;99.90;;;;;;4953006;28;20552;-72
2022/02/07 12:27:51;;;;;;;17.90;16.80;;;8.90;99.90;;;;;;4952191;28;20483;-72
2022/02/07 12:30:29;;;;;;;33.90;18.90;;;8.30;99.90;;;;;;4953161;28;20851;-71
2022/02/07 12:33:03;;;;;;;22.60;17.47;;;8.30;99.90;;;;;;4979669;28;20848;-71
2022/02/07 12:35:30;;;;;;;21.33;19.00;;;8.30;99.90;;;;;;4968800;28;20473;-72
2022/02/07 12:37:57;;;;;;;18.90;17.20;;;8.20;99.90;;;;;;4951353;28;20513;-73
2022/02/07 12:40:24;;;;;;;18.73;17.03;;;8.10;99.90;;;;;;4952179;28;20500;-71
2022/02/07 12:42:51;;;;;;;19.33;17.40;;;8.10;99.90;;;;;;4950648;28;20833;-72
2022/02/07 12:45:25;;;;;;;19.40;17.60;;;8.20;99.90;;;;;;4952648;28;21272;-71
2022/02/07 12:47:52;;;;;;;18.43;16.83;;;8.10;99.90;;;;;;4952942;28;20472;-73
2022/02/07 12:50:22;;;;;;;19.00;17.03;;;8.40;99.90;;;;;;4952001;28;21475;-70
2022/02/07 12:52:50;;;;;;;18.70;17.20;;;8.50;99.90;;;;;;4952362;28;20536;-72
2022/02/07 12:55:17;;;;;;;18.90;17.17;;;8.50;99.90;;;;;;4952234;28;20930;-72
2022/02/07 12:57:46;;;;;;;18.63;16.70;;;8.30;99.90;;;;;;4951664;28;20462;-73
2022/02/07 13:00:16;;;;;;;20.20;18.50;;;8.50;99.90;;;;;;4951650;28;21017;-71
2022/02/07 13:02:45;;;;;;;19.07;17.23;;;8.80;99.90;;;;;;4952144;28;20471;-72
2022/02/07 13:05:13;;;;;;;28.03;18.10;;;9.40;99.90;;;;;;4952155;28;20469;-71
2022/02/07 13:07:45;;;;;;;18.50;17.00;;;9.60;99.90;;;;;;4952044;28;20454;-74
2022/02/07 13:10:14;;;;;;;24.33;17.67;;;9.70;99.90;;;;;;4950729;28;21184;-73
2022/02/07 13:12:54;;;;;;;24.70;17.73;;;10.10;99.90;;;;;;4952187;28;20490;-73
2022/02/07 13:15:23;;;;;;;19.57;17.17;;;10.30;99.90;;;;;;4951272;28;20704;-72
2022/02/07 13:17:53;;;;;;;19.40;16.73;;;10.60;99.90;;;;;;4950306;28;20455;-72
2022/02/07 13:20:22;;;;;;;17.40;15.97;;;10.50;99.90;;;;;;4951161;28;20949;-71
2022/02/07 13:23:02;;;;;;;20.23;17.50;;;9.80;99.90;;;;;;4951380;28;20604;-71
2022/02/07 13:25:39;;;;;;;20.07;17.00;;;9.90;99.90;;;;;;4949137;28;20751;-71
2022/02/07 13:28:10;;;;;;;19.23;17.27;;;9.90;99.90;;;;;;4954123;28;20463;-71
2022/02/07 13:30:40;;;;;;;19.93;16.90;;;10.10;99.90;;;;;;4952714;28;20540;-71
2022/02/07 13:33:07;;;;;;;18.60;16.93;;;10.40;99.90;;;;;;4953970;28;20466;-72
2022/02/07 13:35:39;;;;;;;19.13;17.50;;;10.30;99.90;;;;;;4954377;28;20933;-71
2022/02/07 13:38:08;;;;;;;17.30;16.10;;;10.20;99.90;;;;;;4953056;28;20529;-73
2022/02/07 13:40:43;;;;;;;18.30;16.90;;;9.90;99.90;;;;;;4952959;28;20506;-68
2022/02/07 13:43:17;;;;;;;18.33;16.77;;;9.30;99.90;;;;;;4951277;28;20805;-69
2022/02/07 13:45:47;;;;;;;19.07;17.33;;;9.10;99.90;;;;;;4951983;28;20866;-68
2022/02/07 13:48:17;;;;;;;18.43;16.97;;;9.00;99.90;;;;;;4952580;28;20466;-68
2022/02/07 13:50:48;;;;;;;17.53;16.33;;;9.20;99.90;;;;;;4952287;28;20636;-69
2022/02/07 13:53:18;;;;;;;18.17;16.60;;;9.20;99.90;;;;;;4952021;28;20869;-69
2022/02/07 13:55:47;;;;;;;18.63;16.73;;;9.40;99.90;;;;;;4952400;28;20988;-68
2022/02/07 13:58:17;;;;;;;18.83;17.17;;;9.60;99.90;;;;;;4952262;28;20504;-70
2022/02/07 14:00:55;;;;;;;17.73;16.40;;;9.50;99.90;;;;;;4952409;28;20512;-68
2022/02/07 14:03:25;;;;;;;18.20;16.90;;;9.30;99.90;;;;;;4951445;28;20466;-69
2022/02/07 14:05:54;;;;;;;18.30;16.90;;;9.30;99.90;;;;;;4952038;28;20798;-69
2022/02/07 14:08:33;;;;;;;19.13;17.63;;;9.10;99.90;;;;;;4951528;28;21106;-70
2022/02/07 14:11:00;;;;;;;18.20;17.20;;;9.10;99.90;;;;;;4951514;28;20485;-69
2022/02/07 14:13:27;;;;;;;19.30;17.50;;;8.90;99.90;;;;;;4952071;28;20478;-69
2022/02/07 14:15:54;;;;;;;20.00;17.87;;;8.70;99.90;;;;;;4951521;28;20463;-69
2022/02/07 14:18:24;;;;;;;18.80;16.93;;;8.60;99.90;;;;;;4951389;28;20474;-68
2022/02/07 14:20:52;;;;;;;18.77;17.33;;;8.50;99.90;;;;;;4950800;28;20511;-69
2022/02/07 14:23:19;;;;;;;18.33;17.03;;;8.50;99.90;;;;;;4951211;28;20511;-69